createdAt,value
2023-04-23T00:01:19.231Z,100147.72
2023-04-23T00:03:47.761Z,100144.13
2023-04-23T00:06:15.408Z,100142.50
2023-04-23T00:08:42.680Z,100144.28
2023-04-23T00:11:10.371Z,100148.22
2023-04-23T00:13:38.138Z,100140.91
2023-04-23T00:16:05.642Z,100141.66
2023-04-23T00:18:32.836Z,100137.69
2023-04-23T00:21:00.006Z,100140.88
2023-04-23T00:23:28.917Z,100143.72
2023-04-23T00:25:56.088Z,100136.56
2023-04-23T00:28:22.870Z,100134.50
2023-04-23T00:30:50.239Z,100139.34
2023-04-23T00:33:17.125Z,100139.16
2023-04-23T00:35:44.248Z,100145.09
2023-04-23T00:38:11.086Z,100135.38
2023-04-23T00:40:38.245Z,100143.25
2023-04-23T00:43:05.371Z,100140.81
2023-04-23T00:45:32.600Z,100136.16
2023-04-23T00:47:59.666Z,100138.03
2023-04-23T00:50:26.905Z,100146.47
2023-04-23T00:52:53.795Z,100137.19
2023-04-23T00:55:26.894Z,100137.78
2023-04-23T00:57:54.906Z,100133.47
2023-04-23T01:00:22.552Z,100128.28
2023-04-23T01:02:50.601Z,100124.97
2023-04-23T01:05:19.880Z,100130.25
2023-04-23T01:07:47.407Z,100131.19
2023-04-23T01:10:14.708Z,100131.44
2023-04-23T01:12:41.489Z,100133.31
2023-04-23T01:15:09.515Z,100126.19
2023-04-23T01:17:37.131Z,100134.41
2023-04-23T01:20:06.495Z,100132.63
2023-04-23T01:22:38.037Z,100130.34
2023-04-23T01:25:05.973Z,100134.13
2023-04-23T01:27:35.935Z,100144.63
2023-04-23T01:30:04.929Z,100134.28
2023-04-23T01:32:32.627Z,100134.97
2023-04-23T01:35:00.078Z,100129.78
2023-04-23T01:37:27.621Z,100129.28
2023-04-23T01:39:54.780Z,100122.09
2023-04-23T01:42:23.374Z,100121.84
2023-04-23T01:44:50.531Z,100129.63
2023-04-23T01:47:19.553Z,100134.19
2023-04-23T01:49:46.846Z,100134.47
2023-04-23T01:52:13.697Z,100126.84
2023-04-23T01:54:41.064Z,100126.22
2023-04-23T01:57:08.143Z,100132.44
2023-04-23T01:59:35.719Z,100123.38
2023-04-23T02:02:02.586Z,100116.47
2023-04-23T02:04:30.979Z,100127.09
2023-04-23T02:06:57.912Z,100119.44
2023-04-23T02:09:25.357Z,100119.38
2023-04-23T02:11:52.159Z,100112.41
2023-04-23T02:14:19.834Z,100117.84
2023-04-23T02:16:47.543Z,100123.41
2023-04-23T02:19:16.892Z,100121.53
2023-04-23T02:21:44.091Z,100116.28
2023-04-23T02:24:11.260Z,100117.22
2023-04-23T02:26:38.046Z,100121.91
2023-04-23T02:29:05.753Z,100115.78
2023-04-23T02:31:32.642Z,100115.59
2023-04-23T02:33:59.736Z,100121.94
2023-04-23T02:36:28.728Z,100115.00
2023-04-23T02:38:55.988Z,100114.34
2023-04-23T02:41:22.896Z,100111.00
2023-04-23T02:43:49.960Z,100109.56
2023-04-23T02:46:16.804Z,100109.81
2023-04-23T02:48:43.927Z,100107.19
2023-04-23T02:51:12.901Z,100107.28
2023-04-23T02:53:39.951Z,100112.69
2023-04-23T02:56:07.346Z,100109.22
2023-04-23T02:58:34.852Z,100103.25
2023-04-23T03:01:02.583Z,100099.72
2023-04-23T03:03:32.428Z,100097.16
2023-04-23T03:06:02.001Z,100101.91
2023-04-23T03:08:29.118Z,100096.81
2023-04-23T03:10:55.874Z,100097.84
2023-04-23T03:13:23.150Z,100099.84
2023-04-23T03:15:50.836Z,100099.16
2023-04-23T03:18:18.025Z,100102.56
2023-04-23T03:20:44.866Z,100095.63
2023-04-23T03:23:12.027Z,100100.34
2023-04-23T03:25:39.124Z,100094.91
2023-04-23T03:28:06.214Z,100099.41
2023-04-23T03:30:33.519Z,100094.31
2023-04-23T03:33:02.515Z,100090.25
2023-04-23T03:35:29.801Z,100091.09
2023-04-23T03:37:56.984Z,100097.09
2023-04-23T03:40:23.851Z,100096.94
2023-04-23T03:42:51.405Z,100104.13
2023-04-23T03:45:18.251Z,100099.97
2023-04-23T03:47:45.463Z,100110.00
2023-04-23T03:50:15.493Z,100109.78
2023-04-23T03:52:42.602Z,100107.31
2023-04-23T03:55:10.147Z,100111.03
2023-04-23T03:57:38.310Z,100114.91
2023-04-23T04:00:08.365Z,100113.88
2023-04-23T04:02:35.984Z,100112.41
2023-04-23T04:05:03.240Z,100114.59
2023-04-23T04:07:30.697Z,100112.97
2023-04-23T04:09:57.562Z,100109.41
2023-04-23T04:12:24.682Z,100118.50
2023-04-23T04:14:51.620Z,100117.56
2023-04-23T04:17:18.776Z,100114.97
2023-04-23T04:19:45.666Z,100120.81
2023-04-23T04:22:12.798Z,100125.22
2023-04-23T04:24:42.193Z,100133.88
2023-04-23T04:27:09.930Z,100131.00
2023-04-23T04:29:37.142Z,100133.09
2023-04-23T04:32:05.362Z,100128.84
2023-04-23T04:34:32.279Z,100136.41
2023-04-23T04:36:59.334Z,100135.81
2023-04-23T04:39:26.292Z,100133.63
2023-04-23T04:41:54.472Z,100132.69
2023-04-23T04:44:22.093Z,100134.06
2023-04-23T04:46:49.191Z,100137.06
2023-04-23T04:49:18.263Z,100134.44
2023-04-23T04:51:45.570Z,100137.28
2023-04-23T04:54:12.352Z,100141.03
2023-04-23T04:56:39.536Z,100141.31
2023-04-23T04:59:06.360Z,100142.94
2023-04-23T05:01:33.665Z,100133.34
2023-04-23T05:04:01.012Z,100137.00
2023-04-23T05:06:28.855Z,100142.66
2023-04-23T05:08:55.900Z,100141.22
2023-04-23T05:11:23.007Z,100137.78
2023-04-23T05:13:49.861Z,100143.25
2023-04-23T05:16:16.930Z,100146.22
2023-04-23T05:18:43.708Z,100146.34
2023-04-23T05:21:10.824Z,100146.75
2023-04-23T05:23:37.708Z,100141.59
2023-04-23T05:26:04.796Z,100143.88
2023-04-23T05:28:31.738Z,100145.47
2023-04-23T05:30:58.993Z,100147.28
2023-04-23T05:33:30.616Z,100148.38
2023-04-23T05:36:00.256Z,100144.81
2023-04-23T05:38:27.249Z,100138.66
2023-04-23T05:40:54.327Z,100140.31
2023-04-23T05:43:21.289Z,100139.50
2023-04-23T05:45:48.427Z,100142.69
2023-04-23T05:48:15.288Z,100150.66
2023-04-23T05:50:42.398Z,100140.13
2023-04-23T05:53:09.185Z,100153.16
2023-04-23T05:55:36.334Z,100148.63
2023-04-23T05:58:03.082Z,100148.22
2023-04-23T06:00:30.534Z,100146.31
2023-04-23T06:02:57.448Z,100148.41
2023-04-23T06:05:24.847Z,100151.47
2023-04-23T06:07:51.716Z,100159.38
2023-04-23T06:10:18.842Z,100150.59
2023-04-23T06:12:45.617Z,100158.50
2023-04-23T06:15:15.683Z,100161.03
2023-04-23T06:17:42.579Z,100157.72
2023-04-23T06:20:11.789Z,100156.72
2023-04-23T06:22:38.898Z,100154.41
2023-04-23T06:25:06.388Z,100163.03
2023-04-23T06:27:33.903Z,100157.91
2023-04-23T06:30:01.013Z,100159.84
2023-04-23T06:32:27.921Z,100163.66
2023-04-23T06:35:01.448Z,100157.25
2023-04-23T06:37:31.738Z,100157.50
2023-04-23T06:39:59.647Z,100159.25
2023-04-23T06:42:26.468Z,100162.41
2023-04-23T06:44:53.629Z,100160.78
2023-04-23T06:47:20.601Z,100163.28
2023-04-23T06:49:47.644Z,100163.06
2023-04-23T06:52:14.415Z,100154.78
2023-04-23T06:54:41.983Z,100156.94
2023-04-23T06:57:09.988Z,100160.47
2023-04-23T06:59:37.296Z,100152.72
2023-04-23T07:02:04.397Z,100149.94
2023-04-23T07:04:31.573Z,100146.31
2023-04-23T07:06:58.542Z,100146.25
2023-04-23T07:09:27.411Z,100144.41
2023-04-23T07:11:54.276Z,100145.66
2023-04-23T07:14:21.343Z,100148.75
2023-04-23T07:16:48.139Z,100151.47
2023-04-23T07:19:15.274Z,100148.44
2023-04-23T07:21:42.168Z,100144.81
2023-04-23T07:24:09.243Z,100143.81
2023-04-23T07:26:36.330Z,100140.09
2023-04-23T07:29:06.719Z,100143.81
2023-04-23T07:31:34.134Z,100144.97
2023-04-23T07:34:01.445Z,100133.81
2023-04-23T07:36:28.737Z,100139.38
2023-04-23T07:38:55.972Z,100140.81
2023-04-23T07:41:22.867Z,100139.47
2023-04-23T07:43:50.179Z,100133.94
2023-04-23T07:46:17.048Z,100137.19
2023-04-23T07:48:44.153Z,100136.50
2023-04-23T07:51:11.149Z,100138.91
2023-04-23T07:53:38.304Z,100131.31
2023-04-23T07:56:05.279Z,100132.84
2023-04-23T07:58:33.317Z,100122.75
2023-04-23T08:01:00.200Z,100135.47
2023-04-23T08:03:29.037Z,100125.09
2023-04-23T08:05:56.939Z,100133.88
2023-04-23T08:08:24.077Z,100123.47
2023-04-23T08:10:50.910Z,100129.22
2023-04-23T08:13:18.018Z,100123.19
2023-04-23T08:15:44.837Z,100129.47
2023-04-23T08:18:12.144Z,100122.59
2023-04-23T08:20:38.948Z,100122.44
2023-04-23T08:23:06.391Z,100120.41
2023-04-23T08:25:33.300Z,100117.66
2023-04-23T08:28:00.572Z,100119.72
2023-04-23T08:30:27.328Z,100121.72
2023-04-23T08:32:54.513Z,100114.88
2023-04-23T08:35:22.321Z,100119.25
2023-04-23T08:37:49.616Z,100116.13
2023-04-23T08:40:17.120Z,100111.53
2023-04-23T08:42:51.751Z,100108.69
2023-04-23T08:45:19.045Z,100107.44
2023-04-23T08:47:46.167Z,100104.22
2023-04-23T08:50:18.164Z,100098.97
2023-04-23T08:52:55.174Z,100094.59
2023-04-23T08:55:23.712Z,100094.34
2023-04-23T08:57:51.100Z,100098.13
2023-04-23T09:00:23.219Z,100088.28
2023-04-23T09:02:51.133Z,100085.34
2023-04-23T09:05:18.038Z,100092.06
2023-04-23T09:07:45.629Z,100091.22
2023-04-23T09:10:16.828Z,100083.91
2023-04-23T09:12:45.657Z,100087.88
2023-04-23T09:15:13.464Z,100084.38
2023-04-23T09:17:46.714Z,100086.88
2023-04-23T09:20:14.796Z,100077.44
2023-04-23T09:22:47.762Z,100080.41
2023-04-23T09:25:20.715Z,100072.75
2023-04-23T09:27:49.918Z,100077.69
2023-04-23T09:30:18.416Z,100072.44
2023-04-23T09:32:46.583Z,100073.28
2023-04-23T09:35:15.519Z,100073.03
2023-04-23T09:37:49.158Z,100066.63
2023-04-23T09:40:20.102Z,100065.28
2023-04-23T09:42:55.966Z,100064.16
2023-04-23T09:45:25.773Z,100056.91
2023-04-23T09:47:58.356Z,100063.19
2023-04-23T09:50:36.841Z,100056.06
2023-04-23T09:53:09.281Z,100068.69
2023-04-23T09:55:39.332Z,100052.47
2023-04-23T09:58:11.642Z,100053.03
2023-04-23T10:00:40.015Z,100052.13
2023-04-23T10:03:08.955Z,100051.19
2023-04-23T10:08:16.550Z,100032.09
2023-04-23T10:13:16.820Z,100035.25
2023-04-23T10:15:46.827Z,100027.81
2023-04-23T10:18:15.169Z,100033.78
2023-04-23T10:20:42.892Z,100028.94
2023-04-23T10:23:13.152Z,100033.22
2023-04-23T10:25:41.601Z,100021.13
2023-04-23T10:28:11.804Z,100023.91
2023-04-23T10:30:43.115Z,100012.41
2023-04-23T10:33:22.515Z,100010.72
2023-04-23T10:35:56.933Z,100012.00
2023-04-23T10:38:25.416Z,100016.09
2023-04-23T10:40:55.504Z,100018.34
2023-04-23T10:43:23.879Z,100015.44
2023-04-23T10:45:50.874Z,100012.44
2023-04-23T10:48:17.951Z,100007.50
2023-04-23T10:51:02.476Z,100006.94
2023-04-23T10:53:36.295Z,100004.78
2023-04-23T10:56:07.856Z,99988.03
2023-04-23T10:58:51.957Z,99999.53
2023-04-23T11:01:19.705Z,99990.81
2023-04-23T11:03:47.880Z,99990.13
2023-04-23T11:06:20.590Z,99994.03
2023-04-23T11:08:54.668Z,99986.22
2023-04-23T11:11:40.203Z,99988.66
2023-04-23T11:14:16.495Z,99990.75
2023-04-23T11:16:43.380Z,99959.91
2023-04-23T11:19:19.049Z,99991.66
2023-04-23T11:22:16.786Z,99985.38
2023-04-23T11:24:46.769Z,99983.34
2023-04-23T11:27:18.372Z,99988.75
2023-04-23T11:29:46.876Z,99987.47
2023-04-23T11:32:17.035Z,99974.50
2023-04-23T11:34:46.070Z,99975.50
2023-04-23T11:37:15.475Z,99974.13
2023-04-23T11:39:44.553Z,99974.28
2023-04-23T11:42:13.293Z,99968.53
2023-04-23T11:44:41.461Z,99967.97
2023-04-23T11:47:11.241Z,99961.56
2023-04-23T11:49:39.530Z,99958.13
2023-04-23T11:52:10.148Z,99962.22
2023-04-23T11:54:40.094Z,99966.41
2023-04-23T11:57:06.942Z,99963.34
2023-04-23T11:59:34.079Z,99955.97
2023-04-23T12:02:00.929Z,99954.06
2023-04-23T12:04:29.948Z,99955.97
2023-04-23T12:06:58.249Z,99950.75
2023-04-23T12:09:28.162Z,99949.38
2023-04-23T12:11:57.018Z,99945.88
2023-04-23T12:14:30.116Z,99942.66
2023-04-23T12:16:58.670Z,99945.41
2023-04-23T12:19:28.943Z,99938.28
2023-04-23T12:21:58.004Z,99939.97
2023-04-23T12:24:26.998Z,99935.78
2023-04-23T12:26:56.075Z,99933.88
2023-04-23T12:29:23.476Z,99934.25
2023-04-23T12:31:54.622Z,99932.56
2023-04-23T12:34:21.788Z,99916.72
2023-04-23T12:36:55.001Z,99928.28
2023-04-23T12:39:32.146Z,99927.63
2023-04-23T12:42:08.076Z,99925.75
2023-04-23T12:44:36.855Z,99922.78
2023-04-23T12:47:07.397Z,99915.91
2023-04-23T12:49:36.472Z,99915.56
2023-04-23T12:52:04.887Z,99902.59
2023-04-23T12:54:39.497Z,99904.47
2023-04-23T12:57:08.301Z,99900.72
2023-04-23T12:59:35.619Z,99893.50
2023-04-23T13:02:03.990Z,99889.44
2023-04-23T13:04:34.676Z,99885.69
2023-04-23T13:07:02.097Z,99882.28
2023-04-23T13:09:29.586Z,99884.97
2023-04-23T13:11:56.844Z,99890.94
2023-04-23T13:14:27.252Z,99890.41
2023-04-23T13:16:54.371Z,99888.72
2023-04-23T13:19:21.167Z,99865.09
2023-04-23T13:21:48.206Z,99863.81
2023-04-23T13:24:15.068Z,99860.63
2023-04-23T13:26:42.215Z,99865.75
2023-04-23T13:29:09.017Z,99865.72
2023-04-23T13:31:36.179Z,99854.69
2023-04-23T13:34:03.356Z,99863.50
2023-04-23T13:36:30.670Z,99842.41
2023-04-23T13:38:57.617Z,99843.97
2023-04-23T13:41:24.675Z,99844.34
2023-04-23T13:43:51.477Z,99833.84
2023-04-23T13:46:19.703Z,99840.28
2023-04-23T13:48:46.955Z,99822.31
2023-04-23T13:51:27.179Z,99823.97
2023-04-23T13:54:01.206Z,99836.34
2023-04-23T13:56:30.605Z,99821.91
2023-04-23T13:59:18.413Z,99820.63
2023-04-23T14:01:49.851Z,99815.47
2023-04-23T14:04:18.532Z,99821.09
2023-04-23T14:06:45.785Z,99812.63
2023-04-23T14:09:12.614Z,99809.41
2023-04-23T14:11:40.614Z,99810.22
2023-04-23T14:14:07.805Z,99807.16
2023-04-23T14:16:35.476Z,99814.66
2023-04-23T14:19:02.543Z,99816.63
2023-04-23T14:21:29.781Z,99804.81
2023-04-23T14:24:02.621Z,99805.69
2023-04-23T14:29:08.690Z,99799.47
2023-04-23T14:31:38.140Z,99798.44
2023-04-23T14:34:06.266Z,99797.38
2023-04-23T14:36:33.394Z,99795.28
2023-04-23T14:39:04.940Z,99798.22
2023-04-23T14:41:33.070Z,99781.78
2023-04-23T14:44:03.453Z,99788.47
2023-04-23T14:46:31.095Z,99778.84
2023-04-23T14:48:58.030Z,99786.38
2023-04-23T14:51:25.174Z,99785.31
2023-04-23T14:53:52.849Z,99775.53
2023-04-23T14:56:20.649Z,99773.72
2023-04-23T14:58:47.434Z,99775.44
2023-04-23T15:01:14.685Z,99765.97
2023-04-23T15:03:44.989Z,99773.63
2023-04-23T15:06:12.237Z,99776.19
2023-04-23T15:08:39.028Z,99772.84
2023-04-23T15:11:13.081Z,99774.69
2023-04-23T15:14:03.777Z,99770.91
2023-04-23T15:19:06.607Z,99771.72
2023-04-23T15:21:33.782Z,99773.34
2023-04-23T15:24:00.653Z,99770.69
2023-04-23T15:26:28.194Z,99767.53
2023-04-23T15:28:55.512Z,99777.59
2023-04-23T15:31:22.556Z,99767.66
2023-04-23T15:33:49.401Z,99770.19
2023-04-23T15:36:16.485Z,99770.09
2023-04-23T15:38:43.454Z,99769.91
2023-04-23T15:41:11.579Z,99765.19
2023-04-23T15:43:38.400Z,99758.13
2023-04-23T15:46:05.815Z,99753.75
2023-04-23T15:48:32.706Z,99764.09
2023-04-23T15:50:59.806Z,99759.59
2023-04-23T15:53:28.039Z,99762.16
2023-04-23T15:55:55.135Z,99759.91
2023-04-23T15:58:21.929Z,99765.66
2023-04-23T16:00:49.093Z,99768.66
2023-04-23T16:03:16.169Z,99763.16
2023-04-23T16:05:43.432Z,99760.75
2023-04-23T16:08:11.787Z,99759.81
2023-04-23T16:10:38.974Z,99760.19
2023-04-23T16:13:06.518Z,99757.47
2023-04-23T16:15:33.717Z,99755.53
2023-04-23T16:18:00.885Z,99761.38
2023-04-23T16:20:28.722Z,99756.25
2023-04-23T16:22:55.735Z,99759.84
2023-04-23T16:25:22.980Z,99751.88
2023-04-23T16:27:50.263Z,99747.59
2023-04-23T16:30:17.363Z,99749.06
2023-04-23T16:32:44.404Z,99749.31
2023-04-23T16:35:11.678Z,99743.59
2023-04-23T16:37:38.485Z,99740.25
2023-04-23T16:40:06.316Z,99744.06
2023-04-23T16:42:33.350Z,99734.59
2023-04-23T16:45:00.466Z,99736.13
2023-04-23T16:47:27.583Z,99741.16
2023-04-23T16:49:54.750Z,99739.81
2023-04-23T16:52:21.620Z,99741.31
2023-04-23T16:54:49.592Z,99738.78
2023-04-23T16:57:17.723Z,99739.47
2023-04-23T16:59:47.923Z,99733.66
2023-04-23T17:02:14.799Z,99735.69
2023-04-23T17:04:42.289Z,99741.06
2023-04-23T17:07:09.433Z,99738.94
2023-04-23T17:09:37.551Z,99727.41
2023-04-23T17:12:05.382Z,99730.34
2023-04-23T17:14:32.553Z,99739.19
2023-04-23T17:16:59.400Z,99734.88
2023-04-23T17:19:26.490Z,99737.41
2023-04-23T17:21:53.279Z,99728.38
2023-04-23T17:24:20.477Z,99733.38
2023-04-23T17:26:48.061Z,99737.56
2023-04-23T17:29:15.552Z,99735.09
2023-04-23T17:31:42.419Z,99741.75
2023-04-23T17:34:09.485Z,99734.53
2023-04-23T17:36:36.310Z,99729.19
2023-04-23T17:39:03.750Z,99743.50
2023-04-23T17:41:30.682Z,99733.44
2023-04-23T17:43:57.828Z,99728.09
2023-04-23T17:46:24.731Z,99733.91
2023-04-23T17:48:51.844Z,99735.22
2023-04-23T17:51:19.036Z,99733.84
2023-04-23T17:53:50.530Z,99744.50
2023-04-23T17:56:17.780Z,99741.09
2023-04-23T17:58:45.251Z,99744.69
2023-04-23T18:01:12.335Z,99750.53
2023-04-23T18:03:39.527Z,99745.03
2023-04-23T18:06:08.675Z,99744.81
2023-04-23T18:08:36.467Z,99747.13
2023-04-23T18:11:04.604Z,99754.53
2023-04-23T18:13:32.000Z,99748.78
2023-04-23T18:15:59.004Z,99758.72
2023-04-23T18:18:26.083Z,99748.81
2023-04-23T18:20:53.047Z,99760.72
2023-04-23T18:23:23.160Z,99759.34
2023-04-23T18:25:50.067Z,99759.13
2023-04-23T18:28:17.246Z,99766.66
2023-04-23T18:30:44.149Z,99771.09
2023-04-23T18:33:26.633Z,99771.00
2023-04-23T18:35:56.463Z,99774.72
2023-04-23T18:38:25.941Z,99780.81
2023-04-23T18:40:52.793Z,99782.84
2023-04-23T18:43:20.121Z,99781.63
2023-04-23T18:45:46.945Z,99780.44
2023-04-23T18:48:35.112Z,99781.47
2023-04-23T18:51:13.418Z,99786.84
2023-04-23T18:53:40.932Z,99782.13
2023-04-23T18:56:07.795Z,99780.66
2023-04-23T18:58:34.973Z,99778.59
2023-04-23T19:01:01.821Z,99782.28
2023-04-23T19:03:29.725Z,99796.75
2023-04-23T19:05:57.136Z,99783.03
2023-04-23T19:08:30.226Z,99784.47
2023-04-23T19:10:57.450Z,99786.88
2023-04-23T19:13:24.615Z,99788.44
2023-04-23T19:15:51.528Z,99785.66
2023-04-23T19:18:19.330Z,99784.81
2023-04-23T19:20:46.176Z,99784.81
2023-04-23T19:23:13.233Z,99783.81
2023-04-23T19:25:40.100Z,99782.59
2023-04-23T19:28:07.291Z,99790.13
2023-04-23T19:30:34.829Z,99784.94
2023-04-23T19:33:02.019Z,99783.41
2023-04-23T19:35:28.982Z,99787.47
2023-04-23T19:37:56.154Z,99788.44
2023-04-23T19:40:22.961Z,99789.72
2023-04-23T19:42:50.424Z,99789.44
2023-04-23T19:45:18.422Z,99781.84
2023-04-23T19:47:45.665Z,99787.47
2023-04-23T19:50:14.008Z,99782.00
2023-04-23T19:52:41.479Z,99776.41
2023-04-23T19:55:08.747Z,99782.25
2023-04-23T19:57:36.730Z,99772.63
2023-04-23T20:00:06.275Z,99775.41
2023-04-23T20:02:35.164Z,99774.84
2023-04-23T20:05:03.214Z,99775.25
2023-04-23T20:07:30.966Z,99775.38
2023-04-23T20:09:57.722Z,99774.81
2023-04-23T20:12:24.863Z,99775.22
2023-04-23T20:14:52.111Z,99778.56
2023-04-23T20:17:19.171Z,99770.03
2023-04-23T20:19:46.486Z,99776.88
2023-04-23T20:22:13.591Z,99765.00
2023-04-23T20:24:42.753Z,99771.41
2023-04-23T20:27:09.863Z,99764.44
2023-04-23T20:29:36.826Z,99757.97
2023-04-23T20:32:04.309Z,99762.84
2023-04-23T20:34:31.121Z,99752.38
2023-04-23T20:37:02.053Z,99759.63
2023-04-23T20:39:28.900Z,99752.50
2023-04-23T20:41:57.833Z,99755.25
2023-04-23T20:44:25.343Z,99760.84
2023-04-23T20:46:52.891Z,99754.81
2023-04-23T20:49:19.857Z,99755.09
2023-04-23T20:51:47.053Z,99751.47
2023-04-23T20:54:13.891Z,99755.78
2023-04-23T20:56:40.994Z,99745.00
2023-04-23T20:59:07.776Z,99747.94
2023-04-23T21:01:34.916Z,99744.72
2023-04-23T21:04:02.286Z,99749.03
2023-04-23T21:06:31.195Z,99750.47
2023-04-23T21:08:58.141Z,99754.56
2023-04-23T21:11:29.239Z,99737.66
2023-04-23T21:13:56.198Z,99742.38
2023-04-23T21:16:23.344Z,99733.72
2023-04-23T21:18:51.135Z,99747.13
2023-04-23T21:21:18.301Z,99735.81
2023-04-23T21:23:45.106Z,99738.31
2023-04-23T21:26:12.393Z,99734.09
2023-04-23T21:28:39.189Z,99734.78
2023-04-23T21:31:14.492Z,99739.22
2023-04-23T21:33:41.332Z,99727.13
2023-04-23T21:36:08.401Z,99726.34
2023-04-23T21:38:35.285Z,99720.50
2023-04-23T21:41:02.532Z,99722.41
2023-04-23T21:43:29.520Z,99725.88
2023-04-23T21:45:56.675Z,99713.56
2023-04-23T21:48:23.509Z,99717.34
2023-04-23T21:50:53.619Z,99713.41
2023-04-23T21:53:22.562Z,99712.63
2023-04-23T21:55:49.703Z,99712.31
2023-04-23T21:58:18.027Z,99717.59
2023-04-23T22:00:46.359Z,99712.16
2023-04-23T22:03:17.325Z,99700.72
2023-04-23T22:05:48.671Z,99698.91
2023-04-23T22:08:16.569Z,99690.38
2023-04-23T22:10:44.311Z,99701.69
2023-04-23T22:13:14.065Z,99691.03
2023-04-23T22:15:41.372Z,99697.19
2023-04-23T22:18:08.827Z,99695.38
2023-04-23T22:20:37.595Z,99693.81
2023-04-23T22:23:04.486Z,99690.00
2023-04-23T22:25:31.787Z,99685.13
2023-04-23T22:27:58.869Z,99685.13
2023-04-23T22:30:26.055Z,99675.25
2023-04-23T22:32:52.835Z,99681.19
2023-04-23T22:35:20.159Z,99679.66
2023-04-23T22:37:47.062Z,99674.16
2023-04-23T22:40:14.243Z,99677.19
2023-04-23T22:42:41.038Z,99671.78
2023-04-23T22:45:08.515Z,99667.41
2023-04-23T22:47:35.363Z,99665.34
2023-04-23T22:50:02.696Z,99661.28
2023-04-23T22:52:29.860Z,99669.88
2023-04-23T22:54:57.523Z,99664.44
2023-04-23T22:57:24.916Z,99665.22
2023-04-23T22:59:52.066Z,99659.06
2023-04-23T23:02:20.110Z,99655.59
2023-04-23T23:04:47.349Z,99652.22
2023-04-23T23:07:14.846Z,99649.25
2023-04-23T23:09:42.097Z,99645.53
2023-04-23T23:12:09.213Z,99636.66
2023-04-23T23:14:37.887Z,99644.00
2023-04-23T23:17:06.151Z,99640.38
2023-04-23T23:19:33.235Z,99643.03
2023-04-23T23:22:00.189Z,99634.63
2023-04-23T23:24:27.300Z,99629.84
2023-04-23T23:26:54.170Z,99620.28
2023-04-23T23:29:21.307Z,99624.03
2023-04-23T23:31:48.311Z,99613.44
2023-04-23T23:34:15.717Z,99623.97
2023-04-23T23:36:45.036Z,99622.41
2023-04-23T23:39:13.331Z,99623.97
2023-04-23T23:41:40.167Z,99616.53
2023-04-23T23:44:07.255Z,99611.81
2023-04-23T23:46:34.157Z,99617.81
2023-04-23T23:49:01.378Z,99610.91
2023-04-23T23:51:29.077Z,99604.63
2023-04-23T23:53:56.218Z,99605.25
2023-04-23T23:56:25.364Z,99606.59
2023-04-23T23:58:52.473Z,99607.09
